createdAt,value
2023-06-04T00:01:28.972Z,15.20
2023-06-04T00:03:56.179Z,15.10
2023-06-04T00:06:24.537Z,15.20
2023-06-04T00:08:51.430Z,15.10
2023-06-04T00:11:18.397Z,15.10
2023-06-04T00:13:45.494Z,15.00
2023-06-04T00:16:12.662Z,15.00
2023-06-04T00:18:39.800Z,14.90
2023-06-04T00:21:08.673Z,14.90
2023-06-04T00:23:37.524Z,14.90
2023-06-04T00:26:05.151Z,14.90
2023-06-04T00:28:32.532Z,14.80
2023-06-04T00:31:00.106Z,14.80
2023-06-04T00:33:27.074Z,14.80
2023-06-04T00:35:54.419Z,14.70
2023-06-04T00:38:21.604Z,14.70
2023-06-04T00:40:50.933Z,14.60
2023-06-04T00:43:18.060Z,14.60
2023-06-04T00:45:45.246Z,14.60
2023-06-04T00:48:12.651Z,14.60
2023-06-04T00:50:40.729Z,14.50
2023-06-04T00:53:07.753Z,14.50
2023-06-04T00:55:34.979Z,14.40
2023-06-04T00:58:05.181Z,14.40
2023-06-04T01:00:33.373Z,14.40
2023-06-04T01:03:07.229Z,14.40
2023-06-04T01:05:39.039Z,14.30
2023-06-04T01:08:10.013Z,14.30
2023-06-04T01:10:37.262Z,14.30
2023-06-04T01:13:06.114Z,14.30
2023-06-04T01:15:33.102Z,14.20
2023-06-04T01:18:06.709Z,14.20
2023-06-04T01:20:37.805Z,14.20
2023-06-04T01:23:20.230Z,14.10
2023-06-04T01:25:50.821Z,14.10
2023-06-04T01:28:21.805Z,14.00
2023-06-04T01:30:49.652Z,14.00
2023-06-04T01:33:18.389Z,14.00
2023-06-04T01:35:45.612Z,13.90
2023-06-04T01:38:12.627Z,13.90
2023-06-04T01:40:40.055Z,13.90
2023-06-04T01:43:07.178Z,13.90
2023-06-04T01:45:35.740Z,13.90
2023-06-04T01:48:04.131Z,13.80
2023-06-04T01:50:31.878Z,13.80
2023-06-04T01:52:59.569Z,13.80
2023-06-04T01:55:27.029Z,13.70
2023-06-04T01:57:54.628Z,13.70
2023-06-04T02:00:21.828Z,13.70
2023-06-04T02:02:51.058Z,13.70
2023-06-04T02:05:18.336Z,13.60
2023-06-04T02:07:47.129Z,13.60
2023-06-04T02:10:16.177Z,13.50
2023-06-04T02:12:55.048Z,13.50
2023-06-04T02:15:24.081Z,13.50
2023-06-04T02:17:56.686Z,13.50
2023-06-04T02:20:23.733Z,13.50
2023-06-04T02:22:50.780Z,13.40
2023-06-04T02:25:17.731Z,13.40
2023-06-04T02:27:44.668Z,13.40
2023-06-04T02:30:12.002Z,13.40
2023-06-04T02:32:40.352Z,13.40
2023-06-04T02:35:09.671Z,13.30
2023-06-04T02:37:37.104Z,13.30
2023-06-04T02:40:05.262Z,13.30
2023-06-04T02:42:32.294Z,13.30
2023-06-04T02:44:59.346Z,13.20
2023-06-04T02:47:26.834Z,13.20
2023-06-04T02:49:53.923Z,13.10
2023-06-04T02:52:23.840Z,13.10
2023-06-04T02:54:51.155Z,13.10
2023-06-04T02:57:18.298Z,13.10
2023-06-04T02:59:45.201Z,13.00
2023-06-04T03:02:12.369Z,13.00
2023-06-04T03:04:39.342Z,13.00
2023-06-04T03:07:06.782Z,12.90
2023-06-04T03:09:35.792Z,12.90
2023-06-04T03:12:03.187Z,12.90
2023-06-04T03:14:33.368Z,12.90
2023-06-04T03:17:02.251Z,12.90
2023-06-04T03:19:29.566Z,12.90
2023-06-04T03:21:57.914Z,12.90
2023-06-04T03:24:24.984Z,12.90
2023-06-04T03:26:53.298Z,12.90
2023-06-04T03:29:20.455Z,12.90
2023-06-04T03:31:47.509Z,12.80
2023-06-04T03:34:14.527Z,12.80
2023-06-04T03:36:41.570Z,12.80
2023-06-04T03:39:08.584Z,12.80
2023-06-04T03:41:35.689Z,12.80
2023-06-04T03:44:04.277Z,12.70
2023-06-04T03:46:34.797Z,12.70
2023-06-04T03:49:01.906Z,12.70
2023-06-04T03:51:28.886Z,12.70
2023-06-04T03:53:56.489Z,12.70
2023-06-04T03:56:23.695Z,12.70
2023-06-04T03:58:51.820Z,12.60
2023-06-04T04:01:20.207Z,12.60
2023-06-04T04:03:50.820Z,12.60
2023-06-04T04:06:20.238Z,12.50
2023-06-04T04:08:47.217Z,12.60
2023-06-04T04:11:15.694Z,12.50
2023-06-04T04:13:42.746Z,12.60
2023-06-04T04:16:11.450Z,12.50
2023-06-04T04:18:42.766Z,12.50
2023-06-04T04:21:09.817Z,12.50
2023-06-04T04:23:38.546Z,12.50
2023-06-04T04:26:05.546Z,12.50
2023-06-04T04:28:34.405Z,12.50
2023-06-04T04:31:03.457Z,12.50
2023-06-04T04:33:33.577Z,12.50
2023-06-04T04:36:02.577Z,12.50
2023-06-04T04:38:29.921Z,12.50
2023-06-04T04:40:58.544Z,12.50
2023-06-04T04:43:32.745Z,12.50
2023-06-04T04:46:00.122Z,12.50
2023-06-04T04:48:27.458Z,12.50
2023-06-04T04:50:54.917Z,12.50
2023-06-04T04:53:27.421Z,12.50
2023-06-04T04:55:54.400Z,12.50
2023-06-04T04:58:21.436Z,12.60
2023-06-04T05:00:49.009Z,12.60
2023-06-04T05:03:16.315Z,12.70
2023-06-04T05:05:44.623Z,12.70
2023-06-04T05:08:13.077Z,12.70
2023-06-04T05:10:41.513Z,12.70
2023-06-04T05:13:08.633Z,12.80
2023-06-04T05:15:35.606Z,12.80
2023-06-04T05:18:04.716Z,12.80
2023-06-04T05:20:32.065Z,12.90
2023-06-04T05:22:59.465Z,12.90
2023-06-04T05:25:28.152Z,12.90
2023-06-04T05:27:57.832Z,12.90
2023-06-04T05:30:25.032Z,13.00
2023-06-04T05:32:54.861Z,13.00
2023-06-04T05:35:28.316Z,13.10
2023-06-04T05:37:55.536Z,13.10
2023-06-04T05:40:23.061Z,13.20
2023-06-04T05:42:50.159Z,13.30
2023-06-04T05:45:18.738Z,13.30
2023-06-04T05:47:45.733Z,13.40
2023-06-04T05:50:12.762Z,13.40
2023-06-04T05:52:40.178Z,13.40
2023-06-04T05:55:11.440Z,13.50
2023-06-04T05:57:38.516Z,13.60
2023-06-04T06:00:12.488Z,13.60
2023-06-04T06:02:41.350Z,13.70
2023-06-04T06:05:09.363Z,13.80
2023-06-04T06:07:36.466Z,13.90
2023-06-04T06:10:04.781Z,13.90
2023-06-04T06:12:32.333Z,14.00
2023-06-04T06:14:59.381Z,14.10
2023-06-04T06:17:27.218Z,14.20
2023-06-04T06:19:56.325Z,14.30
2023-06-04T06:22:23.607Z,14.40
2023-06-04T06:24:50.681Z,14.50
2023-06-04T06:27:17.647Z,14.70
2023-06-04T06:29:44.991Z,14.80
2023-06-04T06:32:12.409Z,14.90
2023-06-04T06:34:39.578Z,15.10
2023-06-04T06:37:08.304Z,15.20
2023-06-04T06:39:35.384Z,15.30
2023-06-04T06:42:02.619Z,15.40
2023-06-04T06:44:29.648Z,15.50
2023-06-04T06:46:56.713Z,15.60
2023-06-04T06:49:23.675Z,15.80
2023-06-04T06:51:50.704Z,16.00
2023-06-04T06:54:22.736Z,16.10
2023-06-04T06:56:51.503Z,16.30
2023-06-04T06:59:18.577Z,16.50
2023-06-04T07:01:45.850Z,16.80
2023-06-04T07:04:13.185Z,17.00
2023-06-04T07:06:40.980Z,17.20
2023-06-04T07:09:08.556Z,17.40
2023-06-04T07:11:37.231Z,17.60
2023-06-04T07:14:04.410Z,17.90
2023-06-04T07:16:31.726Z,18.20
2023-06-04T07:18:59.149Z,18.40
2023-06-04T07:21:26.294Z,18.60
2023-06-04T07:23:53.468Z,18.90
2023-06-04T07:26:20.641Z,19.00
2023-06-04T07:28:49.129Z,19.10
2023-06-04T07:31:17.393Z,19.30
2023-06-04T07:33:44.592Z,19.40
2023-06-04T07:36:13.524Z,19.60
2023-06-04T07:38:40.675Z,19.70
2023-06-04T07:41:08.068Z,19.90
2023-06-04T07:43:36.319Z,20.00
2023-06-04T07:46:05.084Z,20.10
2023-06-04T07:48:32.229Z,20.20
2023-06-04T07:50:59.611Z,20.30
2023-06-04T07:53:27.292Z,20.40
2023-06-04T07:55:55.012Z,20.50
2023-06-04T07:58:22.100Z,20.60
2023-06-04T08:00:49.304Z,20.80
2023-06-04T08:03:18.033Z,20.90
2023-06-04T08:05:45.211Z,21.00
2023-06-04T08:08:12.339Z,21.20
2023-06-04T08:10:41.091Z,21.40
2023-06-04T08:13:08.074Z,21.50
2023-06-04T08:15:35.143Z,21.60
2023-06-04T08:18:02.497Z,21.70
2023-06-04T08:20:31.013Z,21.80
2023-06-04T08:22:58.043Z,21.90
2023-06-04T08:25:25.118Z,22.00
2023-06-04T08:27:52.204Z,22.30
2023-06-04T08:30:19.233Z,22.40
2023-06-04T08:32:46.334Z,22.50
2023-06-04T08:35:13.549Z,22.60
2023-06-04T08:37:42.433Z,22.70
2023-06-04T08:40:10.905Z,22.80
2023-06-04T08:42:42.402Z,22.90
2023-06-04T08:45:13.005Z,22.90
2023-06-04T08:47:47.939Z,23.00
2023-06-04T08:50:18.456Z,23.00
2023-06-04T08:52:47.525Z,23.10
2023-06-04T08:55:15.367Z,23.20
2023-06-04T08:57:42.419Z,23.30
2023-06-04T09:00:10.436Z,23.40
2023-06-04T09:02:41.590Z,23.30
2023-06-04T09:05:17.020Z,23.50
2023-06-04T09:07:44.128Z,23.70
2023-06-04T09:10:18.082Z,23.80
2023-06-04T09:12:48.193Z,23.90
2023-06-04T09:15:15.345Z,24.10
2023-06-04T09:17:42.567Z,24.20
2023-06-04T09:20:19.100Z,24.40
2023-06-04T09:22:46.105Z,24.40
2023-06-04T09:25:22.801Z,24.50
2023-06-04T09:27:50.500Z,24.60
2023-06-04T09:30:19.856Z,24.80
2023-06-04T09:32:46.983Z,24.90
2023-06-04T09:35:15.614Z,25.10
2023-06-04T09:37:44.204Z,25.30
2023-06-04T09:40:12.092Z,25.40
2023-06-04T09:42:47.700Z,25.40
2023-06-04T09:45:14.774Z,25.30
2023-06-04T09:47:43.192Z,25.20
2023-06-04T09:50:11.960Z,25.30
2023-06-04T09:52:40.949Z,25.50
2023-06-04T09:55:21.697Z,25.60
2023-06-04T09:57:51.128Z,25.80
2023-06-04T10:00:19.480Z,25.90
2023-06-04T10:02:47.915Z,26.10
2023-06-04T10:05:16.045Z,26.20
2023-06-04T10:07:45.799Z,26.30
2023-06-04T10:10:16.165Z,26.30
2023-06-04T10:12:44.382Z,26.40
2023-06-04T10:15:14.118Z,26.30
2023-06-04T10:17:42.154Z,26.30
2023-06-04T10:20:10.188Z,26.30
2023-06-04T10:22:37.694Z,26.10
2023-06-04T10:25:05.666Z,26.00
2023-06-04T10:27:33.540Z,25.90
2023-06-04T10:30:00.928Z,26.00
2023-06-04T10:32:30.547Z,26.20
2023-06-04T10:34:58.454Z,26.40
2023-06-04T10:37:26.984Z,26.40
2023-06-04T10:39:55.404Z,26.50
2023-06-04T10:42:23.196Z,26.50
2023-06-04T10:44:54.305Z,26.60
2023-06-04T10:47:23.239Z,26.70
2023-06-04T10:49:53.301Z,26.60
2023-06-04T10:52:21.040Z,26.50
2023-06-04T10:54:54.553Z,26.50
2023-06-04T10:57:22.223Z,26.50
2023-06-04T10:59:56.050Z,26.60
2023-06-04T11:02:23.247Z,26.90
2023-06-04T11:05:02.610Z,27.20
2023-06-04T11:07:29.826Z,27.20
2023-06-04T11:09:57.087Z,27.20
2023-06-04T11:12:24.172Z,27.20
2023-06-04T11:14:57.908Z,27.20
2023-06-04T11:17:24.936Z,27.30
2023-06-04T11:19:56.644Z,27.50
2023-06-04T11:22:25.773Z,27.80
2023-06-04T11:24:57.734Z,28.00
2023-06-04T11:27:36.388Z,28.10
2023-06-04T11:30:05.050Z,28.30
2023-06-04T11:32:32.167Z,28.40
2023-06-04T11:35:09.131Z,28.50
2023-06-04T11:37:38.241Z,28.50
2023-06-04T11:40:17.133Z,28.60
2023-06-04T11:42:44.985Z,28.80
2023-06-04T11:45:13.368Z,28.90
2023-06-04T11:47:40.876Z,29.00
2023-06-04T11:50:10.512Z,29.00
2023-06-04T11:52:39.230Z,29.00
2023-06-04T11:55:10.757Z,28.90
2023-06-04T11:57:38.295Z,29.00
2023-06-04T12:00:10.411Z,29.00
2023-06-04T12:02:37.773Z,29.30
2023-06-04T12:05:15.313Z,29.40
2023-06-04T12:07:43.856Z,29.50
2023-06-04T12:10:13.288Z,29.70
2023-06-04T12:12:41.756Z,29.80
2023-06-04T12:15:11.039Z,29.90
2023-06-04T12:17:38.648Z,30.00
2023-06-04T12:20:07.068Z,30.00
2023-06-04T12:22:34.194Z,30.00
2023-06-04T12:25:04.220Z,30.00
2023-06-04T12:27:31.251Z,30.00
2023-06-04T12:29:59.486Z,30.00
2023-06-04T12:32:26.884Z,30.00
2023-06-04T12:34:55.410Z,30.20
2023-06-04T12:37:22.896Z,30.20
2023-06-04T12:39:49.896Z,30.30
2023-06-04T12:42:20.140Z,30.40
2023-06-04T12:44:47.384Z,30.40
2023-06-04T12:47:14.582Z,30.40
2023-06-04T12:49:41.628Z,30.40
2023-06-04T12:52:08.641Z,30.60
2023-06-04T12:54:35.729Z,30.60
2023-06-04T12:57:02.934Z,30.60
2023-06-04T12:59:31.271Z,30.70
2023-06-04T13:01:58.554Z,30.60
2023-06-04T13:04:26.020Z,30.50
2023-06-04T13:06:55.681Z,30.50
2023-06-04T13:09:24.033Z,30.30
2023-06-04T13:11:51.663Z,30.20
2023-06-04T13:14:18.782Z,30.20
2023-06-04T13:16:50.381Z,30.10
2023-06-04T13:19:17.534Z,30.00
2023-06-04T13:21:44.502Z,30.00
2023-06-04T13:24:12.076Z,30.10
2023-06-04T13:26:40.219Z,30.20
2023-06-04T13:29:07.190Z,30.20
2023-06-04T13:31:34.155Z,30.20
2023-06-04T13:34:08.953Z,30.30
2023-06-04T13:36:42.201Z,30.40
2023-06-04T13:39:09.277Z,30.40
2023-06-04T13:41:36.257Z,30.30
2023-06-04T13:44:03.431Z,30.10
2023-06-04T13:46:30.755Z,30.00
2023-06-04T13:48:57.955Z,30.00
2023-06-04T13:51:31.450Z,30.00
2023-06-04T13:53:59.924Z,30.00
2023-06-04T13:56:27.101Z,29.90
2023-06-04T13:58:54.531Z,29.80
2023-06-04T14:01:21.909Z,29.80
2023-06-04T14:03:49.137Z,29.80
2023-06-04T14:06:16.332Z,29.80
2023-06-04T14:08:44.684Z,29.80
2023-06-04T14:11:12.215Z,29.80
2023-06-04T14:13:39.873Z,29.80
2023-06-04T14:16:07.186Z,29.70
2023-06-04T14:18:34.276Z,29.70
2023-06-04T14:21:01.198Z,29.60
2023-06-04T14:23:28.317Z,29.60
2023-06-04T14:25:56.785Z,29.50
2023-06-04T14:28:23.990Z,29.40
2023-06-04T14:30:51.633Z,29.40
2023-06-04T14:33:18.737Z,29.40
2023-06-04T14:35:48.020Z,29.50
2023-06-04T14:38:15.690Z,29.40
2023-06-04T14:40:44.978Z,29.40
2023-06-04T14:43:13.761Z,29.30
2023-06-04T14:45:41.684Z,29.10
2023-06-04T14:50:38.710Z,28.80
2023-06-04T14:53:08.761Z,28.70
2023-06-04T14:55:37.091Z,28.50
2023-06-04T14:58:04.727Z,28.30
2023-06-04T15:00:34.377Z,28.20
2023-06-04T15:03:03.570Z,28.10
2023-06-04T15:05:32.317Z,28.00
2023-06-04T15:07:59.763Z,28.00
2023-06-04T15:10:27.216Z,28.00
2023-06-04T15:12:54.328Z,27.90
2023-06-04T15:15:21.659Z,28.00
2023-06-04T15:17:50.659Z,27.90
2023-06-04T15:20:18.036Z,27.80
2023-06-04T15:22:45.225Z,27.70
2023-06-04T15:25:12.643Z,27.60
2023-06-04T15:27:40.202Z,27.50
2023-06-04T15:30:08.512Z,27.40
2023-06-04T15:32:35.771Z,27.40
2023-06-04T15:35:04.904Z,27.20
2023-06-04T15:37:31.907Z,27.10
2023-06-04T15:40:00.977Z,27.00
2023-06-04T15:42:28.172Z,26.90
2023-06-04T15:44:55.637Z,26.70
2023-06-04T15:47:22.879Z,26.50
2023-06-04T15:49:50.097Z,26.40
2023-06-04T15:52:20.616Z,26.30
2023-06-04T15:54:47.708Z,26.20
2023-06-04T15:57:14.970Z,26.00
2023-06-04T15:59:42.894Z,26.00
2023-06-04T16:02:10.292Z,25.90
2023-06-04T16:04:38.475Z,25.80
2023-06-04T16:07:06.449Z,25.70
2023-06-04T16:09:35.375Z,25.60
2023-06-04T16:12:02.689Z,25.50
2023-06-04T16:14:29.760Z,25.40
2023-06-04T16:16:57.064Z,25.20
2023-06-04T16:19:24.078Z,25.10
2023-06-04T16:21:51.206Z,25.00
2023-06-04T16:24:19.001Z,24.90
2023-06-04T16:26:47.559Z,24.80
2023-06-04T16:29:15.050Z,24.80
2023-06-04T16:31:42.449Z,24.70
2023-06-04T16:34:09.825Z,24.60
2023-06-04T16:36:37.634Z,24.60
2023-06-04T16:39:04.992Z,24.60
2023-06-04T16:41:35.515Z,24.60
2023-06-04T16:44:04.281Z,24.50
2023-06-04T16:46:31.574Z,24.40
2023-06-04T16:48:59.285Z,24.40
2023-06-04T16:51:26.468Z,24.40
2023-06-04T16:53:53.560Z,24.40
2023-06-04T16:56:22.521Z,24.30
2023-06-04T16:58:49.697Z,24.30
2023-06-04T17:01:19.189Z,24.20
2023-06-04T17:03:46.425Z,24.10
2023-06-04T17:06:13.589Z,24.00
2023-06-04T17:08:41.030Z,23.90
2023-06-04T17:11:08.365Z,23.90
2023-06-04T17:13:35.697Z,23.80
2023-06-04T17:16:02.791Z,23.70
2023-06-04T17:18:31.319Z,23.70
2023-06-04T17:20:58.444Z,23.60
2023-06-04T17:23:26.829Z,23.50
2023-06-04T17:25:54.292Z,23.30
2023-06-04T17:28:21.492Z,23.30
2023-06-04T17:30:48.964Z,23.10
2023-06-04T17:33:16.405Z,22.90
2023-06-04T17:35:45.271Z,22.80
2023-06-04T17:38:12.521Z,22.60
2023-06-04T17:40:39.557Z,22.50
2023-06-04T17:43:06.566Z,22.40
2023-06-04T17:45:33.742Z,22.40
2023-06-04T17:48:00.995Z,22.30
2023-06-04T17:50:28.224Z,22.20
2023-06-04T17:52:58.013Z,22.00
2023-06-04T17:55:26.466Z,21.90
2023-06-04T17:57:56.473Z,21.80
2023-06-04T18:00:23.643Z,21.60
2023-06-04T18:02:50.683Z,21.60
2023-06-04T18:05:17.872Z,21.40
2023-06-04T18:07:46.491Z,21.40
2023-06-04T18:10:15.430Z,21.30
2023-06-04T18:12:45.226Z,21.20
2023-06-04T18:15:14.997Z,21.10
2023-06-04T18:17:42.109Z,20.90
2023-06-04T18:20:10.441Z,20.80
2023-06-04T18:22:38.264Z,20.70
2023-06-04T18:25:09.344Z,20.60
2023-06-04T18:27:38.237Z,20.50
2023-06-04T18:30:07.624Z,20.40
2023-06-04T18:32:35.670Z,20.40
2023-06-04T18:35:02.880Z,20.30
2023-06-04T18:37:31.403Z,20.20
2023-06-04T18:39:58.894Z,20.10
2023-06-04T18:44:57.614Z,20.00
2023-06-04T18:47:24.884Z,19.90
2023-06-04T18:49:52.282Z,19.80
2023-06-04T18:52:19.276Z,19.80
2023-06-04T18:54:46.581Z,19.60
2023-06-04T18:57:14.998Z,19.50
2023-06-04T18:59:42.338Z,19.40
2023-06-04T19:02:10.780Z,19.40
2023-06-04T19:04:37.949Z,19.30
2023-06-04T19:07:05.695Z,19.20
2023-06-04T19:09:32.772Z,19.10
2023-06-04T19:11:59.852Z,19.00
2023-06-04T19:14:26.974Z,18.90
2023-06-04T19:16:53.955Z,18.90
2023-06-04T19:19:22.442Z,18.80
2023-06-04T19:21:53.654Z,18.70
2023-06-04T19:24:25.544Z,18.60
2023-06-04T19:26:52.899Z,18.50
2023-06-04T19:29:20.093Z,18.50
2023-06-04T19:31:48.671Z,18.40
2023-06-04T19:34:15.851Z,18.30
2023-06-04T19:36:44.465Z,18.30
2023-06-04T19:39:11.534Z,18.20
2023-06-04T19:41:38.547Z,18.10
2023-06-04T19:44:05.949Z,18.10
2023-06-04T19:46:33.220Z,18.00
2023-06-04T19:49:00.898Z,18.00
2023-06-04T19:51:28.520Z,17.90
2023-06-04T19:53:57.054Z,17.80
2023-06-04T19:56:24.556Z,17.80
2023-06-04T19:58:52.011Z,17.70
2023-06-04T20:01:20.070Z,17.60
2023-06-04T20:03:47.483Z,17.60
2023-06-04T20:06:14.668Z,17.50
2023-06-04T20:08:42.170Z,17.40
2023-06-04T20:11:11.517Z,17.40
2023-06-04T20:13:38.558Z,17.40
2023-06-04T20:16:06.081Z,17.30
2023-06-04T20:18:34.288Z,17.30
2023-06-04T20:21:01.484Z,17.20
2023-06-04T20:23:28.710Z,17.10
2023-06-04T20:25:57.690Z,17.10
2023-06-04T20:28:26.068Z,17.00
2023-06-04T20:30:53.147Z,16.90
2023-06-04T20:33:20.471Z,16.90
2023-06-04T20:35:47.545Z,16.90
2023-06-04T20:38:14.612Z,16.80
2023-06-04T20:40:41.677Z,16.70
2023-06-04T20:43:09.044Z,16.70
2023-06-04T20:45:37.597Z,16.60
2023-06-04T20:48:05.087Z,16.50
2023-06-04T20:50:32.289Z,16.50
2023-06-04T20:52:59.539Z,16.40
2023-06-04T20:55:26.908Z,16.40
2023-06-04T20:57:54.165Z,16.40
2023-06-04T21:00:21.489Z,16.30
2023-06-04T21:02:50.044Z,16.30
2023-06-04T21:05:17.205Z,16.20
2023-06-04T21:07:44.234Z,16.20
2023-06-04T21:10:11.455Z,16.10
2023-06-04T21:15:51.441Z,16.10
2023-06-04T21:18:19.932Z,16.00
2023-06-04T21:20:47.117Z,15.90
2023-06-04T21:23:14.171Z,15.90
2023-06-04T21:25:41.200Z,15.90
2023-06-04T21:28:08.177Z,15.90
2023-06-04T21:30:35.430Z,15.80
2023-06-04T21:33:02.518Z,15.80
2023-06-04T21:35:31.954Z,15.80
2023-06-04T21:37:59.109Z,15.70
2023-06-04T21:40:26.970Z,15.70
2023-06-04T21:42:53.982Z,15.60
2023-06-04T21:45:21.314Z,15.60
2023-06-04T21:47:48.849Z,15.50
2023-06-04T21:50:16.426Z,15.40
2023-06-04T21:52:45.093Z,15.40
2023-06-04T21:55:12.248Z,15.30
2023-06-04T21:57:39.306Z,15.30
2023-06-04T22:00:09.070Z,15.30
2023-06-04T22:02:36.272Z,15.30
2023-06-04T22:05:03.642Z,15.20
2023-06-04T22:07:30.874Z,15.20
2023-06-04T22:09:59.385Z,15.10
2023-06-04T22:12:27.954Z,15.10
2023-06-04T22:14:54.978Z,15.00
2023-06-04T22:17:23.307Z,15.00
2023-06-04T22:19:51.424Z,14.90
2023-06-04T22:22:18.954Z,14.90
2023-06-04T22:24:46.203Z,14.90
2023-06-04T22:27:14.693Z,14.90
2023-06-04T22:29:41.856Z,14.80
2023-06-04T22:32:08.947Z,14.70
2023-06-04T22:34:36.410Z,14.70
2023-06-04T22:37:03.571Z,14.70
2023-06-04T22:39:30.578Z,14.60
2023-06-04T22:41:57.525Z,14.60
2023-06-04T22:44:26.132Z,14.60
2023-06-04T22:46:53.214Z,14.60
2023-06-04T22:49:20.169Z,14.50
2023-06-04T22:51:47.404Z,14.50
2023-06-04T22:54:14.495Z,14.40
2023-06-04T22:56:41.769Z,14.40
2023-06-04T22:59:08.795Z,14.40
2023-06-04T23:01:37.835Z,14.40
2023-06-04T23:04:05.234Z,14.30
2023-06-04T23:06:32.398Z,14.30
2023-06-04T23:08:59.617Z,14.30
2023-06-04T23:11:26.711Z,14.20
2023-06-04T23:13:53.782Z,14.20
2023-06-04T23:16:20.993Z,14.20
2023-06-04T23:18:49.828Z,14.10
2023-06-04T23:21:16.946Z,14.00
2023-06-04T23:23:44.116Z,14.00
2023-06-04T23:26:11.593Z,14.00
2023-06-04T23:28:38.597Z,14.00
2023-06-04T23:31:05.582Z,14.00
2023-06-04T23:33:32.578Z,13.90
2023-06-04T23:36:02.467Z,13.90
2023-06-04T23:38:30.934Z,13.90
2023-06-04T23:40:58.419Z,13.90
2023-06-04T23:43:25.486Z,13.80
2023-06-04T23:45:52.631Z,13.80
2023-06-04T23:48:19.878Z,13.70
2023-06-04T23:50:46.921Z,13.70
2023-06-04T23:53:15.378Z,13.70
2023-06-04T23:55:42.418Z,13.60
2023-06-04T23:58:09.461Z,13.50
